Time;durP1;ratioP1;P1;durP2;ratioP2;P2;SDS_P1;SDS_P2;PMS_P1;PMS_P2;Temp;Humidity;BMP_temperature;BMP_pressure;BME280_temperature;BME280_humidity;BME280_pressure;Samples;Min_cycle;Max_cycle;Signal;HPM_P1;HPM_P2
2023/09/17 00:01:58;;;;;;;14.48;11.30;;;;;;;;;;4973742;28;20057;-66
2023/09/17 00:04:25;;;;;;;13.85;11.48;;;;;;;;;;4977983;28;20494;-66
2023/09/17 00:06:52;;;;;;;14.73;11.38;;;;;;;;;;4972655;28;20051;-65
2023/09/17 00:09:18;;;;;;;13.13;11.02;;;;;;;;;;4964038;28;20055;-65
2023/09/17 00:11:45;;;;;;;13.20;10.57;;;;;;;;;;4975748;28;20057;-65
2023/09/17 00:14:12;;;;;;;13.77;11.30;;;;;;;;;;4961575;28;20138;-65
2023/09/17 00:16:40;;;;;;;13.05;10.68;;;;;;;;;;4970119;28;20455;-66
2023/09/17 00:19:07;;;;;;;13.80;11.40;;;;;;;;;;4970073;28;20057;-66
2023/09/17 00:21:34;;;;;;;13.10;11.15;;;;;;;;;;4960868;28;20479;-66
2023/09/17 00:24:01;;;;;;;12.68;10.93;;;;;;;;;;4980479;28;20069;-65
2023/09/17 00:26:27;;;;;;;12.35;10.52;;;;;;;;;;4975560;28;20046;-65
2023/09/17 00:28:54;;;;;;;15.27;10.90;;;;;;;;;;4972337;28;20053;-66
2023/09/17 00:31:20;;;;;;;13.07;11.13;;;;;;;;;;4960066;28;20143;-66
2023/09/17 00:33:48;;;;;;;12.93;10.55;;;;;;;;;;4956361;29;20051;-65
2023/09/17 00:36:15;;;;;;;13.05;11.55;;;;;;;;;;4956297;28;20043;-66
2023/09/17 00:38:41;;;;;;;14.32;10.93;;;;;;;;;;4956464;29;20055;-66
2023/09/17 00:41:08;;;;;;;12.57;11.07;;;;;;;;;;4991982;28;20121;-65
2023/09/17 00:43:35;;;;;;;13.07;11.23;;;;;;;;;;4977640;28;20056;-66
2023/09/17 00:46:02;;;;;;;14.43;11.48;;;;;;;;;;4967196;28;20047;-65
2023/09/17 00:48:31;;;;;;;17.02;12.60;;;;;;;;;;4975621;28;20406;-65
2023/09/17 00:51:00;;;;;;;15.63;11.13;;;;;;;;;;4970576;28;20509;-64
2023/09/17 00:53:27;;;;;;;15.57;11.80;;;;;;;;;;4955696;29;20130;-66
2023/09/17 00:55:54;;;;;;;15.40;11.93;;;;;;;;;;4955584;28;20126;-65
2023/09/17 00:58:21;;;;;;;14.85;12.20;;;;;;;;;;4963000;28;20055;-66
2023/09/17 01:00:47;;;;;;;13.57;11.98;;;;;;;;;;4979090;28;20506;-66
2023/09/17 01:03:14;;;;;;;15.85;12.35;;;;;;;;;;4973558;28;20455;-65
2023/09/17 01:05:43;;;;;;;15.02;12.00;;;;;;;;;;4980122;28;20482;-66
2023/09/17 01:08:12;;;;;;;13.75;11.48;;;;;;;;;;4973307;28;20054;-65
2023/09/17 01:10:40;;;;;;;14.48;12.38;;;;;;;;;;4984273;28;20137;-65
2023/09/17 01:13:08;;;;;;;15.15;12.15;;;;;;;;;;4984042;28;20050;-65
2023/09/17 01:15:35;;;;;;;17.00;11.95;;;;;;;;;;4975386;28;20098;-66
2023/09/17 01:18:02;;;;;;;14.10;11.60;;;;;;;;;;4956001;29;20058;-66
2023/09/17 01:20:33;;;;;;;17.08;11.90;;;;;;;;;;4956295;28;20051;-66
2023/09/17 01:23:04;;;;;;;16.20;12.57;;;;;;;;;;4958544;28;20482;-66
2023/09/17 01:25:46;;;;;;;15.98;13.27;;;;;;;;;;4984618;28;20050;-66
2023/09/17 01:28:15;;;;;;;17.60;14.30;;;;;;;;;;4973206;28;20051;-66
2023/09/17 01:30:42;;;;;;;16.25;13.60;;;;;;;;;;4955444;28;20074;-66
2023/09/17 01:33:10;;;;;;;18.50;13.80;;;;;;;;;;4968985;28;20134;-66
2023/09/17 01:35:44;;;;;;;15.25;13.18;;;;;;;;;;4966212;28;20087;-66
2023/09/17 01:38:14;;;;;;;15.32;12.63;;;;;;;;;;4975743;28;20047;-66
2023/09/17 01:40:43;;;;;;;15.35;12.57;;;;;;;;;;4967760;28;20503;-65
2023/09/17 01:43:10;;;;;;;15.23;12.65;;;;;;;;;;4975413;28;20089;-66
2023/09/17 01:45:38;;;;;;;13.18;11.77;;;;;;;;;;4974507;28;20503;-65
2023/09/17 01:48:06;;;;;;;12.68;10.95;;;;;;;;;;4974463;28;20053;-65
2023/09/17 01:50:33;;;;;;;14.38;10.88;;;;;;;;;;4957320;28;20134;-66
2023/09/17 01:53:01;;;;;;;13.68;11.10;;;;;;;;;;4962822;28;20058;-66
2023/09/17 01:55:29;;;;;;;12.68;10.55;;;;;;;;;;4963660;28;20061;-66
2023/09/17 01:57:56;;;;;;;13.52;10.63;;;;;;;;;;4966206;28;20623;-66
2023/09/17 02:00:22;;;;;;;13.55;11.38;;;;;;;;;;4966620;28;20134;-66
2023/09/17 02:02:52;;;;;;;13.35;11.10;;;;;;;;;;4962007;28;20364;-66
2023/09/17 02:05:20;;;;;;;13.63;11.33;;;;;;;;;;4969593;28;20396;-66
2023/09/17 02:07:47;;;;;;;13.23;10.68;;;;;;;;;;4966050;28;20284;-65
2023/09/17 02:10:14;;;;;;;14.50;10.90;;;;;;;;;;4975331;28;20051;-65
2023/09/17 02:12:41;;;;;;;13.32;10.63;;;;;;;;;;4975118;28;20058;-66
2023/09/17 02:15:09;;;;;;;12.43;10.45;;;;;;;;;;4965964;28;20063;-66
2023/09/17 02:17:36;;;;;;;12.25;10.40;;;;;;;;;;4964251;28;20102;-66
2023/09/17 02:20:08;;;;;;;13.00;10.25;;;;;;;;;;4959374;28;20057;-66
2023/09/17 02:22:34;;;;;;;11.73;10.52;;;;;;;;;;4964623;28;20044;-65
2023/09/17 02:25:01;;;;;;;12.15;10.23;;;;;;;;;;4959250;28;20047;-65
2023/09/17 02:27:28;;;;;;;12.00;10.23;;;;;;;;;;4984595;28;20225;-66
2023/09/17 02:29:54;;;;;;;12.10;9.98;;;;;;;;;;4969787;28;20070;-66
2023/09/17 02:32:21;;;;;;;12.32;10.38;;;;;;;;;;4954288;28;20133;-65
2023/09/17 02:34:47;;;;;;;11.77;9.93;;;;;;;;;;4954486;28;20415;-65
2023/09/17 02:37:15;;;;;;;13.13;10.40;;;;;;;;;;4968939;28;20042;-66
2023/09/17 02:39:42;;;;;;;18.05;12.65;;;;;;;;;;4973415;28;20051;-66
2023/09/17 02:42:09;;;;;;;16.08;12.95;;;;;;;;;;4965317;28;20050;-66
2023/09/17 02:44:35;;;;;;;13.55;11.18;;;;;;;;;;4976447;28;20494;-65
2023/09/17 02:47:02;;;;;;;13.15;10.73;;;;;;;;;;4981249;28;20125;-65
2023/09/17 02:49:29;;;;;;;11.98;10.30;;;;;;;;;;4992529;28;20046;-66
2023/09/17 02:51:56;;;;;;;12.02;9.93;;;;;;;;;;4988658;28;20149;-65
2023/09/17 02:54:23;;;;;;;14.10;10.10;;;;;;;;;;4973198;28;20043;-66
2023/09/17 02:56:50;;;;;;;11.70;9.98;;;;;;;;;;4972995;28;20137;-65
2023/09/17 02:59:17;;;;;;;12.50;10.07;;;;;;;;;;4973387;28;20542;-65
2023/09/17 03:01:44;;;;;;;11.57;9.10;;;;;;;;;;4957182;28;20055;-66
2023/09/17 03:04:10;;;;;;;11.50;9.73;;;;;;;;;;4959129;28;20426;-66
2023/09/17 03:06:37;;;;;;;10.48;8.80;;;;;;;;;;4963488;28;20134;-65
2023/09/17 03:09:09;;;;;;;11.70;9.88;;;;;;;;;;4973068;28;20122;-66
2023/09/17 03:11:38;;;;;;;12.23;9.70;;;;;;;;;;4959490;28;20058;-66
2023/09/17 03:14:05;;;;;;;11.32;9.18;;;;;;;;;;4972940;28;20509;-66
2023/09/17 03:16:33;;;;;;;11.27;9.00;;;;;;;;;;4970955;28;20046;-66
2023/09/17 03:19:00;;;;;;;10.43;8.40;;;;;;;;;;4972520;28;20072;-66
2023/09/17 03:21:26;;;;;;;9.65;8.32;;;;;;;;;;4964302;28;20055;-66
2023/09/17 03:23:53;;;;;;;10.30;8.57;;;;;;;;;;4961251;28;20323;-65
2023/09/17 03:26:20;;;;;;;10.85;8.55;;;;;;;;;;4964941;28;20570;-65
2023/09/17 03:28:48;;;;;;;9.63;7.57;;;;;;;;;;4972944;28;20141;-66
2023/09/17 03:31:14;;;;;;;10.32;7.65;;;;;;;;;;4966669;28;20487;-66
2023/09/17 03:33:41;;;;;;;8.50;7.05;;;;;;;;;;4962519;28;20056;-66
2023/09/17 03:36:08;;;;;;;9.88;7.82;;;;;;;;;;4986702;28;20053;-66
2023/09/17 03:38:34;;;;;;;9.63;7.28;;;;;;;;;;4981232;28;20130;-66
2023/09/17 03:41:01;;;;;;;10.05;7.60;;;;;;;;;;4968257;28;20138;-66
2023/09/17 03:43:29;;;;;;;9.35;6.80;;;;;;;;;;4956114;28;20047;-67
2023/09/17 03:45:57;;;;;;;9.30;6.65;;;;;;;;;;4965547;28;20051;-65
2023/09/17 03:48:24;;;;;;;8.60;6.30;;;;;;;;;;4972753;28;20153;-67
2023/09/17 03:50:50;;;;;;;8.27;6.93;;;;;;;;;;4974861;28;20413;-65
2023/09/17 03:53:17;;;;;;;8.07;7.10;;;;;;;;;;4982720;28;20569;-66
2023/09/17 03:55:44;;;;;;;8.20;6.57;;;;;;;;;;4961776;28;20134;-66
2023/09/17 03:58:11;;;;;;;8.77;6.88;;;;;;;;;;4959450;28;20078;-66
2023/09/17 04:00:38;;;;;;;9.10;6.97;;;;;;;;;;4964273;28;20122;-66
2023/09/17 04:03:08;;;;;;;10.02;6.97;;;;;;;;;;4972591;28;20085;-66
2023/09/17 04:05:35;;;;;;;10.18;7.10;;;;;;;;;;4972349;28;20051;-66
2023/09/17 04:08:02;;;;;;;8.82;6.68;;;;;;;;;;4967225;28;20057;-66
2023/09/17 04:10:29;;;;;;;9.35;7.07;;;;;;;;;;4953479;28;20047;-66
2023/09/17 04:12:55;;;;;;;7.97;6.65;;;;;;;;;;4972542;28;20138;-65
2023/09/17 04:15:22;;;;;;;8.45;7.05;;;;;;;;;;4972359;28;20481;-66
2023/09/17 04:17:50;;;;;;;9.30;6.88;;;;;;;;;;4953030;28;20087;-65
2023/09/17 04:20:19;;;;;;;8.27;6.68;;;;;;;;;;4975800;28;20057;-67
2023/09/17 04:22:47;;;;;;;9.07;6.88;;;;;;;;;;4969657;28;20056;-66
2023/09/17 04:25:15;;;;;;;8.82;6.30;;;;;;;;;;4954199;28;20055;-66
2023/09/17 04:27:42;;;;;;;8.20;6.57;;;;;;;;;;4958619;28;20047;-66
2023/09/17 04:30:08;;;;;;;8.52;6.85;;;;;;;;;;4967862;28;20054;-65
2023/09/17 04:32:37;;;;;;;7.95;6.60;;;;;;;;;;4975696;28;20070;-66
2023/09/17 04:35:05;;;;;;;8.65;7.32;;;;;;;;;;4975893;28;20548;-64
2023/09/17 04:37:33;;;;;;;9.18;6.68;;;;;;;;;;4965809;28;20054;-65
2023/09/17 04:39:59;;;;;;;8.68;6.57;;;;;;;;;;4956351;28;20142;-64
2023/09/17 04:42:26;;;;;;;7.72;6.40;;;;;;;;;;4964335;28;20061;-65
2023/09/17 04:44:53;;;;;;;9.02;7.10;;;;;;;;;;4969451;28;20055;-65
2023/09/17 04:47:20;;;;;;;8.73;7.10;;;;;;;;;;4969211;28;20059;-65
2023/09/17 04:49:46;;;;;;;8.48;6.90;;;;;;;;;;4963878;28;20051;-65
2023/09/17 04:52:13;;;;;;;9.63;7.03;;;;;;;;;;4969354;28;20058;-66
2023/09/17 04:54:41;;;;;;;9.13;7.57;;;;;;;;;;4964903;28;20057;-66
2023/09/17 04:57:08;;;;;;;8.88;7.05;;;;;;;;;;4964960;28;20070;-65
2023/09/17 04:59:34;;;;;;;9.60;6.93;;;;;;;;;;4968183;28;20054;-65
2023/09/17 05:02:01;;;;;;;9.88;7.32;;;;;;;;;;4970157;28;20070;-65
2023/09/17 05:04:27;;;;;;;9.00;7.03;;;;;;;;;;4962463;28;20426;-67
2023/09/17 05:06:54;;;;;;;8.20;6.57;;;;;;;;;;4961974;28;20063;-64
2023/09/17 05:09:22;;;;;;;8.55;6.70;;;;;;;;;;4955673;28;20495;-64
2023/09/17 05:11:50;;;;;;;9.60;7.30;;;;;;;;;;4966669;28;20169;-65
2023/09/17 05:14:16;;;;;;;9.38;6.72;;;;;;;;;;4968263;28;20058;-67
2023/09/17 05:16:43;;;;;;;8.40;6.82;;;;;;;;;;4965865;28;20042;-65
2023/09/17 05:19:10;;;;;;;8.70;6.72;;;;;;;;;;4960871;28;20066;-65
2023/09/17 05:21:36;;;;;;;9.57;7.13;;;;;;;;;;4963267;28;20057;-65
2023/09/17 05:24:03;;;;;;;7.85;6.30;;;;;;;;;;4964921;28;20051;-66
2023/09/17 05:26:31;;;;;;;9.32;6.95;;;;;;;;;;4965940;28;20086;-65
2023/09/17 05:28:59;;;;;;;9.05;6.75;;;;;;;;;;4959635;28;20047;-64
2023/09/17 05:31:25;;;;;;;9.18;6.85;;;;;;;;;;4975731;28;20133;-65
2023/09/17 05:33:53;;;;;;;8.20;6.85;;;;;;;;;;4966583;28;20058;-65
2023/09/17 05:36:21;;;;;;;9.15;6.88;;;;;;;;;;4964267;28;20053;-65
2023/09/17 05:38:47;;;;;;;8.20;6.95;;;;;;;;;;4958064;28;20125;-65
2023/09/17 05:41:15;;;;;;;9.80;7.05;;;;;;;;;;4974894;28;20047;-65
2023/09/17 05:43:41;;;;;;;9.55;7.50;;;;;;;;;;4964298;28;20062;-65
2023/09/17 05:46:09;;;;;;;10.25;7.85;;;;;;;;;;4955222;28;20059;-64
2023/09/17 05:48:36;;;;;;;9.02;6.90;;;;;;;;;;4955122;28;20128;-66
2023/09/17 05:51:04;;;;;;;10.25;7.18;;;;;;;;;;4959783;28;20053;-65
2023/09/17 05:53:31;;;;;;;8.32;7.00;;;;;;;;;;4965996;28;20043;-65
2023/09/17 05:55:57;;;;;;;8.48;7.18;;;;;;;;;;4974275;28;20477;-64
2023/09/17 05:58:24;;;;;;;9.35;7.07;;;;;;;;;;4966053;28;20051;-65
2023/09/17 06:00:53;;;;;;;9.43;7.60;;;;;;;;;;4962718;28;20106;-65
2023/09/17 06:03:21;;;;;;;10.73;7.05;;;;;;;;;;4954799;28;20043;-65
2023/09/17 06:05:47;;;;;;;9.38;7.03;;;;;;;;;;4973975;28;20051;-66
2023/09/17 06:08:14;;;;;;;9.88;7.28;;;;;;;;;;4959282;28;20130;-65
2023/09/17 06:10:41;;;;;;;9.77;7.00;;;;;;;;;;4954570;28;20134;-66
2023/09/17 06:13:08;;;;;;;9.45;6.65;;;;;;;;;;4968338;28;20085;-64
2023/09/17 06:15:35;;;;;;;9.88;7.03;;;;;;;;;;4967042;28;20051;-65
2023/09/17 06:18:02;;;;;;;8.98;6.85;;;;;;;;;;4954436;28;20054;-66
2023/09/17 06:20:30;;;;;;;9.25;6.80;;;;;;;;;;4954707;28;20047;-66
2023/09/17 06:22:56;;;;;;;8.88;6.70;;;;;;;;;;4969222;28;20423;-66
2023/09/17 06:25:23;;;;;;;8.40;7.35;;;;;;;;;;4970120;28;20514;-64
2023/09/17 06:27:50;;;;;;;7.65;6.25;;;;;;;;;;4962488;28;20103;-64
2023/09/17 06:30:17;;;;;;;8.45;6.10;;;;;;;;;;4957182;28;20043;-64
2023/09/17 06:32:44;;;;;;;8.77;7.15;;;;;;;;;;4971201;28;20638;-65
2023/09/17 06:35:11;;;;;;;9.52;6.90;;;;;;;;;;4967931;28;20057;-65
2023/09/17 06:37:39;;;;;;;11.07;6.95;;;;;;;;;;4965220;28;20057;-64
2023/09/17 06:40:08;;;;;;;7.28;5.93;;;;;;;;;;4967674;28;20131;-65
2023/09/17 06:42:34;;;;;;;8.88;5.95;;;;;;;;;;4961929;28;20134;-64
2023/09/17 06:45:01;;;;;;;7.80;5.95;;;;;;;;;;4955386;28;20492;-64
2023/09/17 06:47:27;;;;;;;8.18;6.03;;;;;;;;;;4962292;28;20118;-65
2023/09/17 06:49:54;;;;;;;7.75;5.57;;;;;;;;;;4964813;28;20051;-64
2023/09/17 06:52:23;;;;;;;6.90;5.20;;;;;;;;;;4970943;28;20046;-67
2023/09/17 06:54:51;;;;;;;7.43;5.30;;;;;;;;;;4969745;28;20404;-65
2023/09/17 06:57:18;;;;;;;7.43;5.40;;;;;;;;;;4971389;28;20475;-65
2023/09/17 06:59:46;;;;;;;7.55;5.18;;;;;;;;;;4970763;28;20561;-65
2023/09/17 07:02:12;;;;;;;7.22;5.57;;;;;;;;;;4953664;28;20054;-64
2023/09/17 07:04:39;;;;;;;8.55;5.40;;;;;;;;;;4971030;28;20499;-65
2023/09/17 07:07:06;;;;;;;6.97;5.53;;;;;;;;;;4967803;28;20049;-66
2023/09/17 07:09:33;;;;;;;7.75;5.70;;;;;;;;;;4953511;28;20430;-66
2023/09/17 07:12:01;;;;;;;7.75;5.80;;;;;;;;;;4966126;28;20414;-64
2023/09/17 07:14:27;;;;;;;7.22;5.70;;;;;;;;;;4964463;28;20054;-66
2023/09/17 07:16:54;;;;;;;7.60;5.22;;;;;;;;;;4961859;28;20044;-64
2023/09/17 07:19:21;;;;;;;6.57;5.07;;;;;;;;;;4961070;28;20078;-64
2023/09/17 07:21:48;;;;;;;6.35;5.20;;;;;;;;;;4953818;28;20566;-64
2023/09/17 07:24:14;;;;;;;7.13;5.70;;;;;;;;;;4968010;28;20054;-64
2023/09/17 07:26:42;;;;;;;7.00;5.75;;;;;;;;;;4970698;28;20407;-65
2023/09/17 07:29:10;;;;;;;8.02;5.70;;;;;;;;;;4953625;28;20133;-65
2023/09/17 07:31:37;;;;;;;7.35;4.88;;;;;;;;;;4962904;28;20130;-65
2023/09/17 07:34:04;;;;;;;6.65;4.43;;;;;;;;;;4959540;28;20053;-65
2023/09/17 07:36:30;;;;;;;6.70;4.97;;;;;;;;;;4963408;28;20047;-65
2023/09/17 07:38:57;;;;;;;6.40;4.80;;;;;;;;;;4965515;28;20054;-65
2023/09/17 07:41:23;;;;;;;6.63;5.22;;;;;;;;;;4973556;28;20399;-65
2023/09/17 07:43:50;;;;;;;6.43;5.25;;;;;;;;;;4970392;28;20047;-65
2023/09/17 07:46:18;;;;;;;6.32;4.93;;;;;;;;;;4958188;28;20431;-66
2023/09/17 07:48:46;;;;;;;6.07;4.55;;;;;;;;;;4964155;28;20044;-64
2023/09/17 07:51:12;;;;;;;6.13;4.20;;;;;;;;;;4967402;28;20097;-64
2023/09/17 07:53:39;;;;;;;6.05;4.40;;;;;;;;;;4965664;28;20054;-65
2023/09/17 07:56:06;;;;;;;6.35;4.22;;;;;;;;;;4961520;28;20051;-65
2023/09/17 07:58:32;;;;;;;7.20;3.95;;;;;;;;;;4967978;28;20043;-64
2023/09/17 08:00:59;;;;;;;6.75;4.38;;;;;;;;;;4965397;28;20047;-65
2023/09/17 08:03:27;;;;;;;6.93;3.70;;;;;;;;;;4979019;28;20421;-65
2023/09/17 08:05:56;;;;;;;6.60;4.35;;;;;;;;;;4964831;28;20065;-64
2023/09/17 08:08:23;;;;;;;5.78;4.30;;;;;;;;;;4966700;28;20046;-65
2023/09/17 08:10:50;;;;;;;6.57;4.40;;;;;;;;;;4965019;28;20053;-65
2023/09/17 08:13:18;;;;;;;6.25;4.15;;;;;;;;;;4971948;28;20121;-64
2023/09/17 08:15:49;;;;;;;7.57;4.35;;;;;;;;;;4967248;28;20130;-65
2023/09/17 08:18:15;;;;;;;5.45;4.00;;;;;;;;;;4965091;28;20598;-65
2023/09/17 08:20:44;;;;;;;6.13;4.15;;;;;;;;;;4980698;28;20047;-64
2023/09/17 08:23:10;;;;;;;6.45;4.55;;;;;;;;;;4975506;28;20046;-65
2023/09/17 08:25:37;;;;;;;5.93;3.92;;;;;;;;;;4985505;28;20050;-64
2023/09/17 08:28:05;;;;;;;5.88;4.40;;;;;;;;;;4989801;28;20129;-64
2023/09/17 08:30:32;;;;;;;7.32;5.53;;;;;;;;;;4990129;28;20053;-64
2023/09/17 08:33:00;;;;;;;6.90;4.20;;;;;;;;;;4970119;28;20049;-65
2023/09/17 08:35:27;;;;;;;6.50;4.10;;;;;;;;;;4956306;28;20130;-65
2023/09/17 08:37:56;;;;;;;6.18;3.95;;;;;;;;;;4959409;28;20045;-65
2023/09/17 08:40:24;;;;;;;5.45;3.97;;;;;;;;;;4982427;28;20047;-64
2023/09/17 08:42:52;;;;;;;4.82;3.50;;;;;;;;;;4990000;28;20469;-63
2023/09/17 08:45:20;;;;;;;5.97;3.75;;;;;;;;;;4968625;28;20106;-64
2023/09/17 08:47:47;;;;;;;5.72;3.50;;;;;;;;;;4969172;28;20148;-64
2023/09/17 08:50:13;;;;;;;6.63;3.60;;;;;;;;;;4983187;28;20050;-64
2023/09/17 08:52:42;;;;;;;5.82;3.75;;;;;;;;;;4969158;28;20101;-64
2023/09/17 08:55:11;;;;;;;4.80;3.38;;;;;;;;;;4966480;28;20042;-65
2023/09/17 08:57:41;;;;;;;5.13;3.73;;;;;;;;;;4969862;28;20475;-64
2023/09/17 09:00:12;;;;;;;5.05;3.65;;;;;;;;;;4980492;28;20359;-64
2023/09/17 09:02:43;;;;;;;4.88;3.50;;;;;;;;;;4980689;28;20108;-64
2023/09/17 09:05:12;;;;;;;5.30;3.80;;;;;;;;;;4993107;28;20451;-64
2023/09/17 09:07:39;;;;;;;6.78;3.70;;;;;;;;;;4982152;28;20550;-65
2023/09/17 09:10:07;;;;;;;7.13;4.45;;;;;;;;;;4983162;28;20050;-64
2023/09/17 09:12:36;;;;;;;6.05;4.05;;;;;;;;;;4990554;28;20054;-64
2023/09/17 09:15:05;;;;;;;6.00;4.40;;;;;;;;;;4978221;28;20410;-65
2023/09/17 09:17:32;;;;;;;6.47;4.05;;;;;;;;;;4991682;28;20066;-65
2023/09/17 09:19:59;;;;;;;4.82;3.75;;;;;;;;;;4981118;28;20443;-64
2023/09/17 09:22:25;;;;;;;5.40;3.80;;;;;;;;;;4986348;28;20047;-65
2023/09/17 09:24:52;;;;;;;6.75;4.30;;;;;;;;;;4983600;28;20058;-64
2023/09/17 09:27:19;;;;;;;6.25;4.03;;;;;;;;;;4981726;28;20042;-65
2023/09/17 09:29:48;;;;;;;6.47;4.43;;;;;;;;;;4984995;28;20095;-65
2023/09/17 09:32:14;;;;;;;6.50;4.70;;;;;;;;;;4985482;28;20405;-65
2023/09/17 09:34:42;;;;;;;5.97;4.65;;;;;;;;;;4984314;28;20129;-64
2023/09/17 09:37:10;;;;;;;7.05;4.10;;;;;;;;;;4990434;28;20413;-64
2023/09/17 09:39:37;;;;;;;5.65;4.40;;;;;;;;;;4973791;28;20050;-64
2023/09/17 09:42:05;;;;;;;5.75;3.72;;;;;;;;;;4986340;28;20485;-65
2023/09/17 09:44:32;;;;;;;6.68;4.35;;;;;;;;;;4971919;28;20133;-65
2023/09/17 09:47:02;;;;;;;7.03;4.00;;;;;;;;;;4975462;28;20047;-66
2023/09/17 09:49:29;;;;;;;9.13;6.40;;;;;;;;;;4963517;28;20108;-66
2023/09/17 09:51:59;;;;;;;7.68;4.68;;;;;;;;;;4964313;28;20050;-65
2023/09/17 09:54:25;;;;;;;6.45;4.30;;;;;;;;;;4967151;28;20050;-66
2023/09/17 09:56:53;;;;;;;7.28;4.55;;;;;;;;;;4964844;28;20385;-66
2023/09/17 09:59:21;;;;;;;8.43;4.55;;;;;;;;;;4984565;28;20134;-66
2023/09/17 10:01:47;;;;;;;10.70;5.03;;;;;;;;;;4981757;28;20047;-67
2023/09/17 10:04:15;;;;;;;8.48;4.90;;;;;;;;;;4971111;28;20072;-66
2023/09/17 10:06:43;;;;;;;10.38;5.93;;;;;;;;;;4971241;28;20138;-66
2023/09/17 10:09:10;;;;;;;8.85;5.47;;;;;;;;;;4963142;28;20438;-63
2023/09/17 10:11:38;;;;;;;7.85;5.72;;;;;;;;;;4970166;28;20049;-65
2023/09/17 10:14:06;;;;;;;10.38;6.68;;;;;;;;;;4983249;28;20042;-62
2023/09/17 10:16:36;;;;;;;6.70;4.85;;;;;;;;;;4981791;28;20054;-61
2023/09/17 10:19:04;;;;;;;8.10;5.07;;;;;;;;;;4965290;28;20038;-64
2023/09/17 10:21:33;;;;;;;8.30;4.57;;;;;;;;;;4974171;28;20042;-63
2023/09/17 10:24:01;;;;;;;7.67;5.33;;;;;;;;;;4984484;28;20055;-66
2023/09/17 10:26:32;;;;;;;9.32;6.22;;;;;;;;;;4974890;28;20050;-64
2023/09/17 10:29:02;;;;;;;6.47;4.88;;;;;;;;;;4969635;28;20054;-65
2023/09/17 10:31:29;;;;;;;7.38;5.25;;;;;;;;;;4971890;28;20486;-64
2023/09/17 10:33:59;;;;;;;6.78;5.18;;;;;;;;;;4970962;28;20464;-63
2023/09/17 10:36:26;;;;;;;6.20;4.63;;;;;;;;;;4974717;28;20051;-65
2023/09/17 10:38:57;;;;;;;6.10;4.57;;;;;;;;;;4978626;28;20051;-63
2023/09/17 10:41:27;;;;;;;6.30;4.65;;;;;;;;;;4963169;28;20046;-64
2023/09/17 10:43:54;;;;;;;;;;;;;;;;;;4967525;28;20051;-68
2023/09/17 10:46:24;;;;;;;7.38;4.80;;;;;;;;;;4966031;28;19922;-64
2023/09/17 10:48:53;;;;;;;6.00;4.50;;;;;;;;;;4962525;28;20043;-63
2023/09/17 10:51:20;;;;;;;7.43;5.03;;;;;;;;;;4962055;28;20043;-64
2023/09/17 10:53:47;;;;;;;6.40;4.15;;;;;;;;;;4969491;28;20062;-64
2023/09/17 10:56:15;;;;;;;5.50;3.97;;;;;;;;;;4980298;28;20049;-65
2023/09/17 10:58:45;;;;;;;7.38;5.07;;;;;;;;;;4970396;28;20126;-64
2023/09/17 11:01:14;;;;;;;10.32;4.70;;;;;;;;;;4955481;28;20487;-64
2023/09/17 11:03:44;;;;;;;9.25;4.75;;;;;;;;;;4971496;28;20137;-63
2023/09/17 11:06:16;;;;;;;5.68;4.55;;;;;;;;;;4964153;28;20109;-63
2023/09/17 11:08:44;;;;;;;7.30;4.50;;;;;;;;;;4964429;28;20046;-63
2023/09/17 11:11:15;;;;;;;6.63;4.25;;;;;;;;;;4957976;28;20054;-63
2023/09/17 11:13:43;;;;;;;6.55;4.40;;;;;;;;;;4963462;28;20047;-65
2023/09/17 11:16:09;;;;;;;6.65;4.65;;;;;;;;;;4972723;28;20133;-67
2023/09/17 11:18:35;;;;;;;9.80;5.22;;;;;;;;;;4960894;28;20134;-65
2023/09/17 11:21:06;;;;;;;15.73;5.13;;;;;;;;;;4971168;28;20145;-64
2023/09/17 11:23:37;;;;;;;7.32;4.90;;;;;;;;;;4975746;28;20054;-64
2023/09/17 11:26:05;;;;;;;7.50;5.07;;;;;;;;;;4972641;28;20046;-65
2023/09/17 11:28:38;;;;;;;6.07;4.50;;;;;;;;;;4973916;28;20042;-65
2023/09/17 11:31:09;;;;;;;6.57;4.88;;;;;;;;;;4970130;28;20047;-65
2023/09/17 11:33:36;;;;;;;5.45;4.50;;;;;;;;;;4961629;28;20070;-64
2023/09/17 11:36:04;;;;;;;5.65;4.32;;;;;;;;;;4972959;28;20051;-64
2023/09/17 11:38:31;;;;;;;6.35;4.85;;;;;;;;;;4986687;28;20058;-64
2023/09/17 11:41:08;;;;;;;5.55;4.40;;;;;;;;;;4970290;28;20133;-65
2023/09/17 11:43:44;;;;;;;7.22;4.85;;;;;;;;;;4980395;28;20089;-65
2023/09/17 11:46:12;;;;;;;6.20;4.50;;;;;;;;;;4981122;28;20054;-65
2023/09/17 11:48:41;;;;;;;8.07;5.03;;;;;;;;;;4974175;28;20082;-65
2023/09/17 11:51:22;;;;;;;5.88;4.90;;;;;;;;;;4973594;28;20053;-65
2023/09/17 11:53:50;;;;;;;6.95;4.97;;;;;;;;;;4968305;28;20171;-65
2023/09/17 11:56:17;;;;;;;6.47;5.10;;;;;;;;;;4973435;28;20080;-64
2023/09/17 11:58:45;;;;;;;6.38;5.00;;;;;;;;;;4976578;28;20162;-65
2023/09/17 12:01:12;;;;;;;7.25;4.90;;;;;;;;;;4980951;28;20135;-66
2023/09/17 12:03:39;;;;;;;5.82;4.30;;;;;;;;;;4970531;28;21960;-66
2023/09/17 12:06:05;;;;;;;5.78;4.30;;;;;;;;;;4961148;28;20185;-65
2023/09/17 12:08:32;;;;;;;7.72;4.35;;;;;;;;;;4969670;28;20478;-66
2023/09/17 12:11:22;;;;;;;7.25;4.88;;;;;;;;;;4964438;28;20049;-66
2023/09/17 12:13:53;;;;;;;6.05;4.40;;;;;;;;;;4973128;28;20061;-65
2023/09/17 12:16:23;;;;;;;5.85;4.38;;;;;;;;;;4971940;28;20395;-66
2023/09/17 12:18:51;;;;;;;4.95;3.60;;;;;;;;;;4982275;28;20061;-65
2023/09/17 12:21:17;;;;;;;6.15;3.88;;;;;;;;;;4975842;28;20462;-65
2023/09/17 12:24:00;;;;;;;10.43;4.43;;;;;;;;;;4968097;28;20058;-66
2023/09/17 12:29:27;;;;;;;5.40;4.05;;;;;;;;;;4968801;28;20446;-66
2023/09/17 12:31:54;;;;;;;7.20;4.97;;;;;;;;;;4965214;28;20063;-65
2023/09/17 12:34:21;;;;;;;9.57;4.20;;;;;;;;;;4966277;28;20046;-65
2023/09/17 12:36:47;;;;;;;7.60;4.20;;;;;;;;;;4974076;28;20051;-66
2023/09/17 12:39:16;;;;;;;5.45;4.00;;;;;;;;;;4977406;28;20138;-65
2023/09/17 12:41:43;;;;;;;5.97;4.68;;;;;;;;;;4960235;28;20134;-65
2023/09/17 12:44:09;;;;;;;6.22;4.75;;;;;;;;;;4981024;28;20047;-66
2023/09/17 12:46:38;;;;;;;8.00;4.57;;;;;;;;;;4973884;28;20063;-66
2023/09/17 12:49:05;;;;;;;5.25;3.70;;;;;;;;;;4984758;28;20046;-65
2023/09/17 12:51:31;;;;;;;5.10;3.90;;;;;;;;;;4979191;28;20118;-65
2023/09/17 12:53:59;;;;;;;5.82;4.63;;;;;;;;;;4976852;28;20407;-65
2023/09/17 12:56:27;;;;;;;6.45;4.70;;;;;;;;;;4975216;28;20130;-67
2023/09/17 12:58:54;;;;;;;5.72;4.38;;;;;;;;;;4973254;28;20491;-65
2023/09/17 13:01:21;;;;;;;5.50;4.32;;;;;;;;;;4978870;28;20050;-66
2023/09/17 13:03:54;;;;;;;5.70;4.88;;;;;;;;;;4982190;28;20147;-64
2023/09/17 13:06:21;;;;;;;6.60;4.38;;;;;;;;;;4973441;28;20086;-64
2023/09/17 13:08:49;;;;;;;5.85;4.18;;;;;;;;;;4981802;28;20078;-64
2023/09/17 13:11:16;;;;;;;5.80;4.38;;;;;;;;;;4972360;28;20050;-65
2023/09/17 13:13:44;;;;;;;5.53;4.10;;;;;;;;;;4981153;28;20403;-65
2023/09/17 13:16:11;;;;;;;5.80;4.43;;;;;;;;;;4983410;28;20501;-66
2023/09/17 13:18:39;;;;;;;7.03;4.70;;;;;;;;;;4973140;28;20133;-66
2023/09/17 13:21:07;;;;;;;6.03;5.03;;;;;;;;;;4984704;28;20403;-63
2023/09/17 13:23:34;;;;;;;7.00;5.47;;;;;;;;;;4974919;28;20042;-67
2023/09/17 13:26:01;;;;;;;5.88;4.72;;;;;;;;;;4986500;28;20055;-64
2023/09/17 13:28:27;;;;;;;5.85;4.50;;;;;;;;;;4980332;28;20574;-66
2023/09/17 13:30:54;;;;;;;5.85;4.43;;;;;;;;;;4979223;28;20042;-66
2023/09/17 13:33:21;;;;;;;6.60;4.35;;;;;;;;;;4974679;28;20482;-66
2023/09/17 13:35:51;;;;;;;7.30;4.28;;;;;;;;;;4970435;28;20058;-65
2023/09/17 13:38:18;;;;;;;;;;;;;;;;;;4979647;28;20046;-66
2023/09/17 13:40:46;;;;;;;5.32;4.28;;;;;;;;;;4975543;28;20377;-65
2023/09/17 13:43:13;;;;;;;5.82;4.55;;;;;;;;;;4967902;28;20043;-65
2023/09/17 13:45:51;;;;;;;6.10;5.00;;;;;;;;;;4978899;28;20050;-66
2023/09/17 13:48:18;;;;;;;5.85;4.28;;;;;;;;;;4965528;28;20537;-66
2023/09/17 13:50:45;;;;;;;5.35;4.13;;;;;;;;;;4975232;28;20049;-66
2023/09/17 13:53:11;;;;;;;5.82;4.35;;;;;;;;;;4971084;28;20058;-65
2023/09/17 13:55:39;;;;;;;4.90;4.20;;;;;;;;;;4974707;28;20513;-65
2023/09/17 13:58:06;;;;;;;5.03;4.32;;;;;;;;;;4973884;28;20059;-65
2023/09/17 14:00:33;;;;;;;5.22;4.05;;;;;;;;;;4972269;28;20068;-65
2023/09/17 14:03:01;;;;;;;5.65;4.20;;;;;;;;;;4978008;28;20567;-65
2023/09/17 14:05:29;;;;;;;5.40;3.70;;;;;;;;;;4979053;28;20046;-66
2023/09/17 14:07:56;;;;;;;5.90;4.30;;;;;;;;;;4981970;28;20082;-65
2023/09/17 14:10:22;;;;;;;5.57;4.10;;;;;;;;;;4976837;28;20057;-65
2023/09/17 14:12:50;;;;;;;5.50;4.18;;;;;;;;;;4978081;28;20054;-65
2023/09/17 14:15:17;;;;;;;6.60;4.07;;;;;;;;;;4974059;28;20146;-65
2023/09/17 14:17:44;;;;;;;5.45;4.22;;;;;;;;;;4971940;28;20586;-66
2023/09/17 14:20:11;;;;;;;5.05;3.85;;;;;;;;;;4980853;28;20137;-65
2023/09/17 14:22:38;;;;;;;6.03;4.25;;;;;;;;;;4966713;28;20058;-66
2023/09/17 14:25:06;;;;;;;7.47;4.18;;;;;;;;;;4979282;28;20049;-64
2023/09/17 14:27:33;;;;;;;6.30;4.10;;;;;;;;;;4977135;28;20069;-63
2023/09/17 14:30:03;;;;;;;7.18;4.05;;;;;;;;;;4969508;28;20057;-64
2023/09/17 14:32:30;;;;;;;6.28;3.95;;;;;;;;;;4980614;28;20129;-65
2023/09/17 14:34:57;;;;;;;5.40;3.58;;;;;;;;;;4974170;28;20051;-65
2023/09/17 14:37:25;;;;;;;5.25;3.55;;;;;;;;;;4974934;28;20054;-65
2023/09/17 14:39:51;;;;;;;5.00;3.85;;;;;;;;;;4972156;28;20069;-65
2023/09/17 14:42:19;;;;;;;4.72;3.67;;;;;;;;;;4970626;28;20104;-64
2023/09/17 14:44:45;;;;;;;4.85;3.80;;;;;;;;;;4981341;28;20114;-64